createdAt,value
2017-10-15T00:00:44.054Z,13.9
2017-10-15T00:01:43.652Z,13.9
2017-10-15T00:02:42.362Z,13.9
2017-10-15T00:03:41.979Z,13.9
2017-10-15T00:04:41.179Z,13.9
2017-10-15T00:05:40.277Z,13.9
2017-10-15T00:07:38.854Z,13.9
2017-10-15T00:08:37.922Z,13.9
2017-10-15T00:09:37.124Z,13.9
2017-10-15T00:10:36.740Z,13.9
2017-10-15T00:11:35.837Z,13.9
2017-10-15T00:12:35.173Z,13.9
2017-10-15T00:13:34.007Z,13.9
2017-10-15T00:14:33.342Z,13.9
2017-10-15T00:15:32.548Z,13.9
2017-10-15T00:16:32.017Z,13.9
2017-10-15T00:17:31.114Z,13.9
2017-10-15T00:18:29.808Z,13.9
2017-10-15T00:19:29.652Z,13.9
2017-10-15T00:20:28.612Z,13.9
2017-10-15T00:21:27.682Z,13.9
2017-10-15T00:22:26.882Z,13.9
2017-10-15T00:23:26.349Z,13.9
2017-10-15T00:24:25.844Z,13.9
2017-10-15T00:25:24.682Z,13.9
2017-10-15T00:26:23.746Z,13.8
2017-10-15T00:27:23.221Z,13.8
2017-10-15T00:28:22.556Z,13.8
2017-10-15T00:29:22.155Z,13.8
2017-10-15T00:30:20.984Z,13.8
2017-10-15T00:31:20.717Z,13.8
2017-10-15T00:32:19.547Z,13.8
2017-10-15T00:33:18.616Z,13.8
2017-10-15T00:35:17.222Z,13.7
2017-10-15T00:36:16.059Z,13.7
2017-10-15T00:37:15.384Z,13.7
2017-10-15T00:39:13.848Z,13.7
2017-10-15T00:40:13.582Z,13.7
2017-10-15T00:42:11.820Z,13.6
2017-10-15T00:44:10.168Z,13.6
2017-10-15T00:45:09.239Z,13.6
2017-10-15T00:46:08.442Z,13.6
2017-10-15T00:48:07.040Z,13.6
2017-10-15T00:49:06.789Z,13.6
2017-10-15T00:50:05.632Z,13.6
2017-10-15T00:51:04.475Z,13.6
2017-10-15T00:52:04.096Z,13.6
2017-10-15T00:53:03.063Z,13.6
2017-10-15T00:54:02.290Z,13.6
2017-10-15T00:55:01.415Z,13.6
2017-10-15T00:56:00.759Z,13.6
2017-10-15T00:57:00.096Z,13.6
2017-10-15T00:57:59.295Z,13.6
2017-10-15T00:58:58.773Z,13.5
2017-10-15T00:59:57.739Z,13.5
2017-10-15T01:00:57.344Z,13.5
2017-10-15T01:01:56.206Z,13.5
2017-10-15T01:02:55.416Z,13.5
2017-10-15T01:04:54.260Z,13.5
2017-10-15T01:05:52.971Z,13.5
2017-10-15T01:06:52.437Z,13.5
2017-10-15T01:07:51.780Z,13.5
2017-10-15T01:08:50.351Z,13.4
2017-10-15T01:09:49.689Z,13.4
2017-10-15T01:10:49.023Z,13.4
2017-10-15T01:11:48.489Z,13.4
2017-10-15T01:12:47.693Z,13.4
2017-10-15T01:13:46.668Z,13.4
2017-10-15T01:14:45.975Z,13.4
2017-10-15T01:15:45.181Z,13.4
2017-10-15T01:16:44.517Z,13.3
2017-10-15T01:17:43.987Z,13.3
2017-10-15T01:18:42.946Z,13.3
2017-10-15T01:19:42.414Z,13.3
2017-10-15T01:20:40.850Z,13.3
2017-10-15T01:21:40.560Z,13.2
2017-10-15T01:22:39.892Z,13.2
2017-10-15T01:23:39.096Z,13.3
2017-10-15T01:24:38.062Z,13.3
2017-10-15T01:25:37.795Z,13.3
2017-10-15T01:26:36.750Z,13.2
2017-10-15T01:28:35.227Z,13.2
2017-10-15T01:29:33.926Z,13.2
2017-10-15T01:30:33.777Z,13.2
2017-10-15T01:31:32.474Z,13.2
2017-10-15T01:32:31.681Z,13.2
2017-10-15T01:33:31.141Z,13.2
2017-10-15T01:34:30.479Z,13.2
2017-10-15T01:35:29.809Z,13.2
2017-10-15T01:36:28.878Z,13.2
2017-10-15T01:37:28.468Z,13.2
2017-10-15T01:38:26.909Z,13.2
2017-10-15T01:39:26.246Z,13.1
2017-10-15T01:40:25.582Z,13.1
2017-10-15T01:41:25.053Z,13.1
2017-10-15T01:42:24.257Z,13.1
2017-10-15T01:43:23.093Z,13.1
2017-10-15T01:44:22.578Z,13.1
2017-10-15T01:45:22.044Z,13.1
2017-10-15T01:46:20.745Z,13.1
2017-10-15T01:47:20.083Z,13.1
2017-10-15T01:48:19.410Z,13.1
2017-10-15T01:49:18.751Z,13.1
2017-10-15T01:50:17.718Z,13.1
2017-10-15T01:51:16.801Z,13.1
2017-10-15T01:52:16.270Z,13.1
2017-10-15T01:54:14.634Z,13
2017-10-15T01:55:13.837Z,13
2017-10-15T01:56:13.043Z,13
2017-10-15T01:56:43.830Z,13
2017-10-15T01:58:11.344Z,13
2017-10-15T01:59:10.806Z,12.9
2017-10-15T02:00:10.144Z,12.9
2017-10-15T02:01:09.220Z,12.9
2017-10-15T02:02:08.549Z,12.9
2017-10-15T02:03:07.374Z,12.9
2017-10-15T02:04:06.596Z,12.9
2017-10-15T02:05:05.792Z,12.8
2017-10-15T02:06:05.131Z,12.8
2017-10-15T02:07:04.346Z,12.8
2017-10-15T02:07:34.856Z,12.8
2017-10-15T02:08:05.763Z,12.8
2017-10-15T02:09:03.227Z,12.8
2017-10-15T02:10:02.197Z,12.8
2017-10-15T02:11:01.158Z,12.7
2017-10-15T02:12:00.641Z,12.7
2017-10-15T02:12:59.221Z,12.7
2017-10-15T02:13:59.040Z,12.7
2017-10-15T02:14:58.141Z,12.7
2017-10-15T02:15:57.625Z,12.7
2017-10-15T02:17:06.522Z,12.7
2017-10-15T02:17:55.939Z,12.7
2017-10-15T02:18:55.152Z,12.7
2017-10-15T02:19:54.240Z,12.7
2017-10-15T02:20:53.317Z,12.7
2017-10-15T02:21:52.789Z,12.7
2017-10-15T02:22:51.501Z,12.7
2017-10-15T02:23:51.344Z,12.6
2017-10-15T02:24:50.318Z,12.6
2017-10-15T02:25:49.796Z,12.6
2017-10-15T02:26:48.503Z,12.6
2017-10-15T02:28:47.514Z,12.6
2017-10-15T02:29:46.358Z,12.6
2017-10-15T02:30:45.363Z,12.6
2017-10-15T02:31:44.707Z,12.6
2017-10-15T02:32:44.049Z,12.6
2017-10-15T02:33:43.261Z,12.6
2017-10-15T02:34:42.104Z,12.6
2017-10-15T02:35:41.452Z,12.6
2017-10-15T02:36:40.814Z,12.6
2017-10-15T02:37:39.653Z,12.6
2017-10-15T02:38:39.140Z,12.5
2017-10-15T02:39:38.357Z,12.5
2017-10-15T02:40:37.564Z,12.5
2017-10-15T02:41:36.919Z,12.5
2017-10-15T02:42:36.154Z,12.5
2017-10-15T02:43:35.256Z,12.5
2017-10-15T02:44:34.238Z,12.5
2017-10-15T02:45:33.317Z,12.5
2017-10-15T02:46:32.808Z,12.5
2017-10-15T02:47:32.170Z,12.5
2017-10-15T02:48:31.444Z,12.5
2017-10-15T02:49:30.698Z,12.5
2017-10-15T02:50:29.412Z,12.4
2017-10-15T02:51:28.899Z,12.4
2017-10-15T02:52:27.753Z,12.4
2017-10-15T02:53:27.104Z,12.4
2017-10-15T02:54:26.588Z,12.4
2017-10-15T02:55:25.570Z,12.4
2017-10-15T02:56:25.179Z,12.4
2017-10-15T02:57:23.895Z,12.4
2017-10-15T02:58:23.103Z,12.4
2017-10-15T02:59:22.441Z,12.4
2017-10-15T03:00:21.550Z,12.4
2017-10-15T03:01:20.634Z,12.4
2017-10-15T03:02:19.985Z,12.4
2017-10-15T03:02:50.508Z,12.4
2017-10-15T03:03:21.035Z,12.4
2017-10-15T03:03:51.829Z,12.4
2017-10-15T03:04:21.851Z,12.4
2017-10-15T03:06:16.824Z,12.4
2017-10-15T03:07:16.306Z,12.4
2017-10-15T03:10:13.428Z,12.4
2017-10-15T03:11:12.915Z,12.4
2017-10-15T03:12:12.394Z,12.4
2017-10-15T03:13:11.643Z,12.4
2017-10-15T03:14:10.621Z,12.4
2017-10-15T03:15:09.212Z,12.4
2017-10-15T03:16:08.922Z,12.5
2017-10-15T03:17:07.759Z,12.5
2017-10-15T03:18:07.104Z,12.5
2017-10-15T03:19:06.445Z,12.5
2017-10-15T03:20:05.422Z,12.4
2017-10-15T03:21:04.915Z,12.5
2017-10-15T03:22:03.764Z,12.5
2017-10-15T03:23:03.116Z,12.5
2017-10-15T03:24:02.194Z,12.5
2017-10-15T03:25:01.267Z,12.5
2017-10-15T03:26:00.621Z,12.5
2017-10-15T03:27:00.098Z,12.5
2017-10-15T03:27:58.936Z,12.5
2017-10-15T03:28:58.150Z,12.5
2017-10-15T03:29:57.368Z,12.5
2017-10-15T03:30:57.127Z,12.5
2017-10-15T03:31:55.840Z,12.5
2017-10-15T03:32:55.453Z,12.5
2017-10-15T03:33:54.425Z,12.5
2017-10-15T03:34:53.369Z,12.5
2017-10-15T03:35:52.852Z,12.5
2017-10-15T03:36:51.439Z,12.5
2017-10-15T03:37:51.287Z,12.5
2017-10-15T03:38:50.763Z,12.5
2017-10-15T03:39:49.595Z,12.4
2017-10-15T03:40:48.941Z,12.5
2017-10-15T03:41:47.907Z,12.5
2017-10-15T03:42:47.124Z,12.4
2017-10-15T03:43:46.473Z,12.4
2017-10-15T03:44:45.586Z,12.4
2017-10-15T03:45:44.934Z,12.4
2017-10-15T03:46:44.419Z,12.4
2017-10-15T03:47:43.134Z,12.4
2017-10-15T03:48:42.482Z,12.4
2017-10-15T03:49:41.590Z,12.4
2017-10-15T03:50:40.723Z,12.4
2017-10-15T03:51:40.071Z,12.4
2017-10-15T03:52:39.688Z,12.3
2017-10-15T03:53:38.399Z,12.3
2017-10-15T03:54:37.241Z,12.3
2017-10-15T03:55:36.723Z,12.3
2017-10-15T03:56:36.070Z,12.3
2017-10-15T03:57:35.176Z,12.3
2017-10-15T03:58:34.526Z,12.3
2017-10-15T03:59:33.507Z,12.3
2017-10-15T04:00:32.593Z,12.3
2017-10-15T04:01:31.802Z,12.3
2017-10-15T04:02:31.288Z,12.3
2017-10-15T04:03:30.127Z,12.3
2017-10-15T04:04:29.341Z,12.2
2017-10-15T04:05:28.828Z,12.2
2017-10-15T04:06:28.061Z,12.2
2017-10-15T04:07:27.037Z,12.2
2017-10-15T04:08:26.504Z,12.2
2017-10-15T04:09:25.079Z,12.2
2017-10-15T04:10:24.788Z,12.2
2017-10-15T04:11:23.737Z,12.1
2017-10-15T04:12:23.218Z,12.1
2017-10-15T04:13:22.057Z,12.1
2017-10-15T04:14:21.140Z,12.1
2017-10-15T04:15:20.342Z,12.1
2017-10-15T04:16:19.682Z,12.1
2017-10-15T04:17:19.031Z,12
2017-10-15T04:18:18.106Z,12
2017-10-15T04:19:17.317Z,12
2017-10-15T04:20:16.528Z,12
2017-10-15T04:21:15.876Z,12
2017-10-15T04:22:14.710Z,11.9
2017-10-15T04:23:14.183Z,11.9
2017-10-15T04:24:13.795Z,11.9
2017-10-15T04:25:12.638Z,11.9
2017-10-15T04:26:11.877Z,11.9
2017-10-15T04:27:10.853Z,11.9
2017-10-15T04:28:10.067Z,11.9
2017-10-15T04:30:08.927Z,11.8
2017-10-15T04:31:07.903Z,11.8
2017-10-15T04:32:06.879Z,11.8
2017-10-15T04:33:06.349Z,11.8
2017-10-15T04:34:05.063Z,11.8
2017-10-15T04:35:04.416Z,11.7
2017-10-15T04:37:03.066Z,11.7
2017-10-15T04:38:02.029Z,11.7
2017-10-15T04:39:01.506Z,11.7
2017-10-15T04:40:59.484Z,11.7
2017-10-15T04:41:58.822Z,11.7
2017-10-15T04:42:58.311Z,11.7
2017-10-15T04:43:57.430Z,11.7
2017-10-15T04:44:56.010Z,11.7
2017-10-15T04:45:55.220Z,11.7
2017-10-15T04:46:54.847Z,11.7
2017-10-15T04:47:53.926Z,11.7
2017-10-15T04:48:52.998Z,11.7
2017-10-15T04:49:52.329Z,11.7
2017-10-15T04:50:51.293Z,11.7
2017-10-15T04:51:50.765Z,11.7
2017-10-15T04:52:50.112Z,11.7
2017-10-15T04:53:49.233Z,11.7
2017-10-15T04:54:47.949Z,11.7
2017-10-15T04:55:47.032Z,11.7
2017-10-15T04:56:46.742Z,11.7
2017-10-15T04:57:45.979Z,11.7
2017-10-15T04:58:45.348Z,11.7
2017-10-15T04:59:44.059Z,11.7
2017-10-15T05:00:43.673Z,11.7
2017-10-15T05:01:42.511Z,11.7
2017-10-15T05:02:41.729Z,11.7
2017-10-15T05:03:40.811Z,11.7
2017-10-15T05:04:40.301Z,11.7
2017-10-15T05:05:38.878Z,11.7
2017-10-15T05:06:38.365Z,11.7
2017-10-15T05:07:08.386Z,11.7
2017-10-15T05:07:38.906Z,11.8
2017-10-15T05:08:36.744Z,11.8
2017-10-15T05:09:36.346Z,11.8
2017-10-15T05:10:35.186Z,11.8
2017-10-15T05:11:34.523Z,11.8
2017-10-15T05:12:33.998Z,11.8
2017-10-15T05:13:32.849Z,11.8
2017-10-15T05:14:31.951Z,11.8
2017-10-15T05:15:31.162Z,11.8
2017-10-15T05:16:30.132Z,11.8
2017-10-15T05:17:29.337Z,11.8
2017-10-15T05:18:28.545Z,11.8
2017-10-15T05:19:28.146Z,11.8
2017-10-15T05:20:26.731Z,11.8
2017-10-15T05:21:26.070Z,11.8
2017-10-15T05:21:56.468Z,11.8
2017-10-15T05:23:24.359Z,11.8
2017-10-15T05:24:23.839Z,11.8
2017-10-15T05:25:23.193Z,11.8
2017-10-15T05:26:22.160Z,11.8
2017-10-15T05:27:21.633Z,11.8
2017-10-15T05:28:20.612Z,11.8
2017-10-15T05:29:19.967Z,11.7
2017-10-15T05:30:18.806Z,11.7
2017-10-15T05:31:18.151Z,11.7
2017-10-15T05:32:17.123Z,11.7
2017-10-15T05:33:16.611Z,11.7
2017-10-15T05:34:15.737Z,11.7
2017-10-15T05:35:14.590Z,11.7
2017-10-15T05:36:13.969Z,11.7
2017-10-15T05:37:13.326Z,11.7
2017-10-15T05:38:11.911Z,11.7
2017-10-15T05:39:11.254Z,11.7
2017-10-15T05:40:10.857Z,11.7
2017-10-15T05:41:09.826Z,11.7
2017-10-15T05:42:09.431Z,11.6
2017-10-15T05:43:08.553Z,11.7
2017-10-15T05:44:07.263Z,11.6
2017-10-15T05:45:06.880Z,11.6
2017-10-15T05:46:05.461Z,11.6
2017-10-15T05:47:04.953Z,11.6
2017-10-15T05:48:04.306Z,11.7
2017-10-15T05:50:02.537Z,11.6
2017-10-15T05:51:02.021Z,11.6
2017-10-15T05:52:00.729Z,11.7
2017-10-15T05:52:59.816Z,11.7
2017-10-15T05:53:59.025Z,11.7
2017-10-15T05:54:58.370Z,11.7
2017-10-15T05:55:57.854Z,11.7
2017-10-15T05:56:57.168Z,11.7
2017-10-15T05:57:55.606Z,11.7
2017-10-15T05:58:55.195Z,11.7
2017-10-15T05:59:54.042Z,11.7
2017-10-15T06:00:53.382Z,11.7
2017-10-15T06:01:23.909Z,11.7
2017-10-15T06:01:54.564Z,11.7
2017-10-15T06:02:25.359Z,11.7
2017-10-15T06:02:56.016Z,11.7
2017-10-15T06:03:26.415Z,11.7
2017-10-15T06:04:50.551Z,11.7
2017-10-15T06:05:49.253Z,11.7
2017-10-15T06:06:48.853Z,11.8
2017-10-15T06:07:47.967Z,11.8
2017-10-15T06:08:46.946Z,11.8
2017-10-15T06:09:46.432Z,11.8
2017-10-15T06:10:45.276Z,11.8
2017-10-15T06:11:44.622Z,11.8
2017-10-15T06:12:43.627Z,11.8
2017-10-15T06:14:42.222Z,11.8
2017-10-15T06:15:41.697Z,11.8
2017-10-15T06:17:40.068Z,11.9
2017-10-15T06:18:38.775Z,11.9
2017-10-15T06:19:37.979Z,11.8
2017-10-15T06:20:37.457Z,11.9
2017-10-15T06:21:36.154Z,11.9
2017-10-15T06:22:35.522Z,11.8
2017-10-15T06:23:34.987Z,11.9
2017-10-15T06:24:34.080Z,11.9
2017-10-15T06:25:32.925Z,11.9
2017-10-15T06:26:32.271Z,11.9
2017-10-15T06:27:31.755Z,11.9
2017-10-15T06:28:30.595Z,11.9
2017-10-15T06:29:29.937Z,11.9
2017-10-15T06:30:29.410Z,11.9
2017-10-15T06:31:28.520Z,11.9
2017-10-15T06:32:27.224Z,11.9
2017-10-15T06:33:26.572Z,11.9
2017-10-15T06:34:25.779Z,11.9
2017-10-15T06:35:24.996Z,11.9
2017-10-15T06:36:24.095Z,11.9
2017-10-15T06:37:23.462Z,11.9
2017-10-15T06:38:22.331Z,11.9
2017-10-15T06:39:21.815Z,11.9
2017-10-15T06:41:20.044Z,12
2017-10-15T06:42:19.251Z,12
2017-10-15T06:43:18.097Z,12
2017-10-15T06:44:17.316Z,12
2017-10-15T06:45:16.662Z,12
2017-10-15T06:46:16.267Z,12
2017-10-15T06:47:15.382Z,12
2017-10-15T06:48:14.362Z,12.1
2017-10-15T06:49:13.334Z,12.1
2017-10-15T06:50:12.682Z,12.1
2017-10-15T06:51:12.029Z,12.1
2017-10-15T06:52:11.455Z,12.1
2017-10-15T06:53:10.295Z,12.1
2017-10-15T06:54:09.512Z,12.1
2017-10-15T06:55:08.717Z,12.1
2017-10-15T06:56:07.932Z,12.1
2017-10-15T06:57:06.900Z,12.2
2017-10-15T06:58:06.250Z,12.2
2017-10-15T06:59:05.601Z,12.2
2017-10-15T07:01:03.839Z,12.3
2017-10-15T07:02:02.949Z,12.3
2017-10-15T07:03:02.198Z,12.4
2017-10-15T07:04:01.410Z,12.4
2017-10-15T07:05:00.116Z,12.4
2017-10-15T07:05:59.333Z,12.4
2017-10-15T07:06:58.946Z,12.4
2017-10-15T07:07:58.041Z,12.4
2017-10-15T07:08:57.391Z,12.4
2017-10-15T07:09:56.108Z,12.4
2017-10-15T07:10:55.460Z,12.5
2017-10-15T07:11:54.806Z,12.5
2017-10-15T07:12:53.890Z,12.5
2017-10-15T07:13:53.238Z,12.5
2017-10-15T07:14:51.945Z,12.6
2017-10-15T07:15:51.688Z,12.6
2017-10-15T07:16:50.921Z,12.6
2017-10-15T07:17:50.111Z,12.6
2017-10-15T07:18:48.820Z,12.6
2017-10-15T07:19:48.029Z,12.6
2017-10-15T07:20:46.977Z,12.6
2017-10-15T07:21:47.125Z,12.6
2017-10-15T07:22:45.965Z,12.6
2017-10-15T07:23:45.058Z,12.7
2017-10-15T07:24:44.525Z,12.7
2017-10-15T07:25:43.504Z,12.7
2017-10-15T07:26:42.082Z,12.7
2017-10-15T07:27:42.052Z,12.7
2017-10-15T07:28:41.018Z,12.7
2017-10-15T07:29:40.504Z,12.7
2017-10-15T07:30:39.484Z,12.8
2017-10-15T07:31:38.342Z,12.8
2017-10-15T07:32:37.813Z,12.8
2017-10-15T07:33:36.899Z,12.9
2017-10-15T07:34:36.110Z,12.9
2017-10-15T07:35:35.199Z,12.9
2017-10-15T07:36:34.158Z,12.9
2017-10-15T07:37:34.142Z,12.9
2017-10-15T07:38:32.983Z,12.9
2017-10-15T07:39:31.694Z,13
2017-10-15T07:40:31.405Z,13
2017-10-15T07:41:30.244Z,13
2017-10-15T07:42:29.459Z,13
2017-10-15T07:43:28.927Z,13.1
2017-10-15T07:44:28.544Z,13.1
2017-10-15T07:45:27.519Z,13.2
2017-10-15T07:46:26.620Z,13.2
2017-10-15T07:47:25.586Z,13.2
2017-10-15T07:48:24.811Z,13.2
2017-10-15T07:49:24.287Z,13.2
2017-10-15T07:50:23.007Z,13.2
2017-10-15T07:51:22.610Z,13.2
2017-10-15T07:52:21.325Z,13.2
2017-10-15T07:53:20.666Z,13.2
2017-10-15T07:54:20.154Z,13.3
2017-10-15T07:55:19.367Z,13.3
2017-10-15T07:56:18.583Z,13.4
2017-10-15T07:57:17.561Z,13.4
2017-10-15T07:58:16.776Z,13.4
2017-10-15T07:59:16.144Z,13.4
2017-10-15T08:00:15.372Z,13.5
2017-10-15T08:01:14.347Z,13.5
2017-10-15T08:02:13.952Z,13.5
2017-10-15T08:03:12.795Z,13.6
2017-10-15T08:04:12.275Z,13.7
2017-10-15T08:05:11.270Z,13.7
2017-10-15T08:06:10.609Z,13.8
2017-10-15T08:07:09.588Z,13.9
2017-10-15T08:08:08.811Z,13.9
2017-10-15T08:09:08.288Z,13.9
2017-10-15T08:11:06.385Z,14
2017-10-15T08:12:05.728Z,14
2017-10-15T08:13:05.071Z,14
2017-10-15T08:14:04.055Z,14
2017-10-15T08:15:03.400Z,14
2017-10-15T08:16:02.622Z,14
2017-10-15T08:17:01.468Z,14
2017-10-15T08:18:00.818Z,14
2017-10-15T08:20:58.856Z,14.1
2017-10-15T08:21:57.959Z,14.2
2017-10-15T08:22:56.542Z,14.2
2017-10-15T08:23:56.024Z,14.3
